Terminal Aerodrome Forecast
Issued by NWS Billings, MT

Home | Current Version | Previous Version | Text Only | Print | Product List | Glossary On
Versions: 1 2 3 4 5 6 7 8 9 10 11 12 13 14 15 16 17 18 19 20 21 22 23 24 25 26 27
000
FTUS45 KBYZ 310533
TAFSHR
TAF
KSHR 310533Z 3106/0106 31009KT P6SM SCT100
      TEMPO 3108/3111 31017G25KT
     FM311400 VRB06KT P6SM SKC
     FM311800 04008KT P6SM SCT100
     FM010200 VRB03KT P6SM SKC=

USA.gov is the U.S. government's official web portal to all federal, state and local government web resources and services.